sensor_id;sensor_type;location;lat;lon;timestamp;pressure;altitude;pressure_sealevel;temperature;humidity
60427;BME280;46274;47.168;27.604;2022-10-19T03:44:30;100040.16;;;4.49;76.27
60427;BME280;46274;47.168;27.604;2022-10-19T03:51:11;100038.91;;;5.31;72.90
60427;BME280;46274;47.168;27.604;2022-10-19T03:57:32;100146.63;;;5.96;73.28
60427;BME280;46274;47.168;27.604;2022-10-19T04:03:40;100143.97;;;5.66;74.23
60427;BME280;46274;47.168;27.604;2022-10-19T04:09:45;100029.84;;;4.44;81.01
60427;BME280;46274;47.168;27.604;2022-10-19T04:16:06;100057.25;;;5.55;72.96
60427;BME280;46274;47.168;27.604;2022-10-19T04:22:22;100134.16;;;6.04;73.31
60427;BME280;46274;47.168;27.604;2022-10-19T04:28:24;100044.41;;;5.49;72.97
60427;BME280;46274;47.168;27.604;2022-10-19T04:34:26;100156.28;;;5.59;82.05
60427;BME280;46274;47.168;27.604;2022-10-19T04:40:35;100012.03;;;5.50;75.28
60427;BME280;46274;47.168;27.604;2022-10-19T04:46:47;100044.28;;;5.31;75.73
60427;BME280;46274;47.168;27.604;2022-10-19T04:52:53;100025.50;;;5.31;75.48
60427;BME280;46274;47.168;27.604;2022-10-19T04:59:06;100136.06;;;6.22;79.93
60427;BME280;46274;47.168;27.604;2022-10-19T05:05:11;100141.41;;;7.14;77.18
60427;BME280;46274;47.168;27.604;2022-10-19T05:11:17;100073.00;;;8.29;74.40
60427;BME280;46274;47.168;27.604;2022-10-19T05:17:23;100059.34;;;8.65;74.16
60427;BME280;46274;47.168;27.604;2022-10-19T05:23:25;100189.63;;;10.10;71.61
60427;BME280;46274;47.168;27.604;2022-10-19T05:29:27;100095.22;;;9.98;71.21
60427;BME280;46274;47.168;27.604;2022-10-19T05:35:29;100132.59;;;10.28;71.28
60427;BME280;46274;47.168;27.604;2022-10-19T05:41:31;100183.44;;;11.04;70.58
60427;BME280;46274;47.168;27.604;2022-10-19T05:47:33;100185.28;;;11.12;70.43
60427;BME280;46274;47.168;27.604;2022-10-19T05:53:36;100169.00;;;11.12;70.75
60427;BME280;46274;47.168;27.604;2022-10-19T05:59:37;100129.47;;;10.86;71.30
60427;BME280;46274;47.168;27.604;2022-10-19T06:05:39;100156.38;;;10.96;71.10
60427;BME280;46274;47.168;27.604;2022-10-19T06:11:41;100239.13;;;11.54;71.70
60427;BME280;46274;47.168;27.604;2022-10-19T06:17:43;100232.44;;;11.96;71.41
60427;BME280;46274;47.168;27.604;2022-10-19T06:23:51;100176.75;;;12.00;71.45
60427;BME280;46274;47.168;27.604;2022-10-19T06:29:54;100241.44;;;12.73;71.24
60427;BME280;46274;47.168;27.604;2022-10-19T06:36:13;100125.91;;;12.39;71.83
60427;BME280;46274;47.168;27.604;2022-10-19T06:42:16;100254.91;;;13.25;72.08
60427;BME280;46274;47.168;27.604;2022-10-19T06:48:17;100249.47;;;13.25;71.72
60427;BME280;46274;47.168;27.604;2022-10-19T06:54:20;100244.41;;;13.22;71.54
60427;BME280;46274;47.168;27.604;2022-10-19T07:00:24;100210.66;;;13.17;70.90
60427;BME280;46274;47.168;27.604;2022-10-19T07:06:28;100238.47;;;13.48;70.37
60427;BME280;46274;47.168;27.604;2022-10-19T07:12:30;100273.50;;;13.73;69.86
60427;BME280;46274;47.168;27.604;2022-10-19T07:18:34;100288.78;;;13.89;69.75
60427;BME280;46274;47.168;27.604;2022-10-19T07:24:36;100231.13;;;13.64;69.43
60427;BME280;46274;47.168;27.604;2022-10-19T07:30:40;100212.25;;;13.62;69.00
60427;BME280;46274;47.168;27.604;2022-10-19T07:36:46;100240.22;;;13.71;68.94
60427;BME280;46274;47.168;27.604;2022-10-19T07:42:49;100283.41;;;13.95;69.48
60427;BME280;46274;47.168;27.604;2022-10-19T07:48:58;100294.28;;;13.95;69.01
60427;BME280;46274;47.168;27.604;2022-10-19T07:55:00;100166.47;;;13.15;69.74
60427;BME280;46274;47.168;27.604;2022-10-19T08:01:05;100294.41;;;13.87;69.92
60427;BME280;46274;47.168;27.604;2022-10-19T08:07:07;100277.66;;;13.69;70.40
60427;BME280;46274;47.168;27.604;2022-10-19T08:13:11;100192.56;;;12.94;72.57
60427;BME280;46274;47.168;27.604;2022-10-19T08:19:14;100304.94;;;13.39;74.53
60427;BME280;46274;47.168;27.604;2022-10-19T08:25:17;100227.63;;;12.89;74.73
60427;BME280;46274;47.168;27.604;2022-10-19T08:31:20;100232.97;;;12.82;74.35
60427;BME280;46274;47.168;27.604;2022-10-19T08:37:26;100199.97;;;12.56;74.96
60427;BME280;46274;47.168;27.604;2022-10-19T08:44:17;100272.75;;;12.83;75.79
60427;BME280;46274;47.168;27.604;2022-10-19T08:50:45;100192.34;;;12.21;76.84
60427;BME280;46274;47.168;27.604;2022-10-19T09:03:25;100339.59;;;12.78;79.29
60427;BME280;46274;47.168;27.604;2022-10-19T09:16:18;100326.03;;;12.70;80.76
60427;BME280;46274;47.168;27.604;2022-10-19T09:22:33;100290.91;;;12.68;79.53
60427;BME280;46274;47.168;27.604;2022-10-19T09:34:50;100254.72;;;12.82;79.93
60427;BME280;46274;47.168;27.604;2022-10-19T09:47:34;100285.75;;;13.47;80.40
60427;BME280;46274;47.168;27.604;2022-10-19T09:53:54;100263.88;;;14.13;81.72
60427;BME280;46274;47.168;27.604;2022-10-19T10:00:05;100271.66;;;14.38;78.92
60427;BME280;46274;47.168;27.604;2022-10-19T10:06:15;100135.44;;;13.45;78.57
60427;BME280;46274;47.168;27.604;2022-10-19T10:12:18;100254.47;;;14.16;77.47
60427;BME280;46274;47.168;27.604;2022-10-19T10:18:29;100129.91;;;13.24;77.00
60427;BME280;46274;47.168;27.604;2022-10-19T10:24:33;100196.91;;;13.76;77.13
60427;BME280;46274;47.168;27.604;2022-10-19T10:37:49;100215.69;;;14.42;74.80
60427;BME280;46274;47.168;27.604;2022-10-19T10:44:05;100229.53;;;14.40;73.26
60427;BME280;46274;47.168;27.604;2022-10-19T10:56:35;100167.97;;;14.25;72.91
60427;BME280;46274;47.168;27.604;2022-10-19T11:03:21;100208.22;;;14.79;71.03
60427;BME280;46274;47.168;27.604;2022-10-19T11:09:33;100199.28;;;14.64;71.05
60427;BME280;46274;47.168;27.604;2022-10-19T11:15:50;100203.88;;;14.56;70.53
60427;BME280;46274;47.168;27.604;2022-10-19T12:48:32;100089.22;;;15.46;63.03
60427;BME280;46274;47.168;27.604;2022-10-19T13:01:42;99953.88;;;14.64;63.55
60427;BME280;46274;47.168;27.604;2022-10-19T13:15:03;99937.53;;;14.64;64.06
60427;BME280;46274;47.168;27.604;2022-10-19T13:21:44;100066.56;;;15.52;64.44
60427;BME280;46274;47.168;27.604;2022-10-19T13:53:46;99917.84;;;14.75;64.86
60427;BME280;46274;47.168;27.604;2022-10-19T14:00:22;100054.75;;;15.38;65.24
60427;BME280;46274;47.168;27.604;2022-10-19T14:06:37;100061.69;;;14.59;61.04
60427;BME280;46274;47.168;27.604;2022-10-19T14:12:56;100054.25;;;14.12;60.06
60427;BME280;46274;47.168;27.604;2022-10-19T14:19:11;100003.19;;;13.58;60.03
60427;BME280;46274;47.168;27.604;2022-10-19T14:25:22;100019.16;;;13.61;60.10
60427;BME280;46274;47.168;27.604;2022-10-19T14:31:54;99918.41;;;12.83;59.65
60427;BME280;46274;47.168;27.604;2022-10-19T14:38:08;100037.59;;;13.37;60.11
60427;BME280;46274;47.168;27.604;2022-10-19T14:44:42;99998.81;;;13.14;60.20
60427;BME280;46274;47.168;27.604;2022-10-19T14:57:51;100054.72;;;13.16;60.75
60427;BME280;46274;47.168;27.604;2022-10-19T15:03:55;100079.19;;;13.16;61.95
60427;BME280;46274;47.168;27.604;2022-10-19T15:10:07;100079.78;;;13.12;62.02
60427;BME280;46274;47.168;27.604;2022-10-19T15:22:57;100023.72;;;12.38;63.14
60427;BME280;46274;47.168;27.604;2022-10-19T15:29:08;100050.03;;;12.52;63.00
60427;BME280;46274;47.168;27.604;2022-10-19T15:35:35;100081.38;;;12.70;62.18
60427;BME280;46274;47.168;27.604;2022-10-19T15:41:41;100054.25;;;12.40;61.17
60427;BME280;46274;47.168;27.604;2022-10-19T15:54:12;100078.22;;;12.51;60.56
60427;BME280;46274;47.168;27.604;2022-10-19T16:00:18;99999.38;;;12.00;59.90
60427;BME280;46274;47.168;27.604;2022-10-19T16:06:28;99995.75;;;11.93;60.25
60427;BME280;46274;47.168;27.604;2022-10-19T16:12:34;100000.25;;;12.00;59.30
60427;BME280;46274;47.168;27.604;2022-10-19T16:18:39;100047.59;;;12.28;58.89
60427;BME280;46274;47.168;27.604;2022-10-19T16:24:49;99949.91;;;11.60;59.44
60427;BME280;46274;47.168;27.604;2022-10-19T16:30:57;99974.53;;;11.73;59.66
60427;BME280;46274;47.168;27.604;2022-10-19T16:37:00;100072.81;;;12.21;60.21
60427;BME280;46274;47.168;27.604;2022-10-19T16:43:08;100025.06;;;11.74;61.21
60427;BME280;46274;47.168;27.604;2022-10-19T16:49:10;100134.06;;;12.39;61.48
60427;BME280;46274;47.168;27.604;2022-10-19T16:55:13;100071.75;;;12.08;61.38
60427;BME280;46274;47.168;27.604;2022-10-19T17:01:18;100121.53;;;12.38;60.98
60427;BME280;46274;47.168;27.604;2022-10-19T17:07:24;100128.56;;;12.32;60.72
60427;BME280;46274;47.168;27.604;2022-10-19T17:13:27;99978.47;;;11.18;60.84
60427;BME280;46274;47.168;27.604;2022-10-19T17:19:29;100013.53;;;11.20;60.86
60427;BME280;46274;47.168;27.604;2022-10-19T17:25:48;100105.25;;;11.62;61.40
60427;BME280;46274;47.168;27.604;2022-10-19T17:31:49;100087.50;;;11.37;59.55
60427;BME280;46274;47.168;27.604;2022-10-19T17:37:52;100161.34;;;11.70;58.64
60427;BME280;46274;47.168;27.604;2022-10-19T17:43:55;100151.16;;;11.49;58.35
60427;BME280;46274;47.168;27.604;2022-10-19T17:49:57;100081.88;;;10.92;58.23
60427;BME280;46274;47.168;27.604;2022-10-19T17:56:01;100116.75;;;10.95;58.72
60427;BME280;46274;47.168;27.604;2022-10-19T18:02:08;100101.91;;;10.83;59.35
60427;BME280;46274;47.168;27.604;2022-10-19T18:08:16;100003.47;;;10.12;59.12
60427;BME280;46274;47.168;27.604;2022-10-19T18:14:20;100035.97;;;10.20;59.48
60427;BME280;46274;47.168;27.604;2022-10-19T18:33:10;100110.03;;;10.27;60.97
60427;BME280;46274;47.168;27.604;2022-10-19T18:39:12;100150.34;;;10.38;61.33
60427;BME280;46274;47.168;27.604;2022-10-19T18:45:14;100036.59;;;9.50;62.08
60427;BME280;46274;47.168;27.604;2022-10-19T18:51:18;100019.22;;;9.36;62.15
60427;BME280;46274;47.168;27.604;2022-10-19T18:57:26;100164.56;;;10.08;62.46
60427;BME280;46274;47.168;27.604;2022-10-19T19:03:33;100120.28;;;9.84;62.50
60427;BME280;46274;47.168;27.604;2022-10-19T19:09:35;100192.66;;;9.98;62.81
60427;BME280;46274;47.168;27.604;2022-10-19T19:15:41;100086.47;;;9.39;62.87
60427;BME280;46274;47.168;27.604;2022-10-19T19:21:44;100181.34;;;9.78;63.25
60427;BME280;46274;47.168;27.604;2022-10-19T19:27:46;100189.44;;;9.70;63.42
60427;BME280;46274;47.168;27.604;2022-10-19T19:33:52;100129.72;;;9.47;62.79
60427;BME280;46274;47.168;27.604;2022-10-19T19:39:55;100126.38;;;9.45;62.53
60427;BME280;46274;47.168;27.604;2022-10-19T19:46:14;100106.06;;;9.49;61.63
60427;BME280;46274;47.168;27.604;2022-10-19T19:52:18;100063.50;;;9.27;61.72
60427;BME280;46274;47.168;27.604;2022-10-19T19:58:20;100209.94;;;10.38;60.77
60427;BME280;46274;47.168;27.604;2022-10-19T20:10:42;100210.09;;;10.12;61.92
60427;BME280;46274;47.168;27.604;2022-10-19T20:16:44;100164.06;;;9.88;61.50
60427;BME280;46274;47.168;27.604;2022-10-19T20:22:47;100221.25;;;10.09;61.84
60427;BME280;46274;47.168;27.604;2022-10-19T20:28:49;100203.00;;;9.87;62.20
60427;BME280;46274;47.168;27.604;2022-10-19T20:34:52;100060.75;;;9.10;62.92
60427;BME280;46274;47.168;27.604;2022-10-19T20:40:54;100199.44;;;10.02;63.24
60427;BME280;46274;47.168;27.604;2022-10-19T20:47:20;100081.06;;;9.47;63.17
60427;BME280;46274;47.168;27.604;2022-10-19T20:53:30;100173.03;;;10.13;63.33
60427;BME280;46274;47.168;27.604;2022-10-19T20:59:36;100226.16;;;10.46;63.99
60427;BME280;46274;47.168;27.604;2022-10-19T21:05:39;100133.13;;;9.57;67.59
60427;BME280;46274;47.168;27.604;2022-10-19T21:11:49;100213.63;;;9.80;69.31
60427;BME280;46274;47.168;27.604;2022-10-19T21:17:55;100227.31;;;9.70;70.30
60427;BME280;46274;47.168;27.604;2022-10-19T21:24:02;100298.56;;;9.87;72.52
60427;BME280;46274;47.168;27.604;2022-10-19T21:30:05;100306.59;;;9.63;76.19
60427;BME280;46274;47.168;27.604;2022-10-19T21:36:08;100264.75;;;9.24;76.78
60427;BME280;46274;47.168;27.604;2022-10-19T21:42:15;100263.00;;;9.15;76.56
60427;BME280;46274;47.168;27.604;2022-10-19T21:48:17;100241.53;;;9.13;76.04
60427;BME280;46274;47.168;27.604;2022-10-19T21:54:22;100323.91;;;9.27;78.06
60427;BME280;46274;47.168;27.604;2022-10-19T22:00:29;100323.00;;;9.18;78.20
60427;BME280;46274;47.168;27.604;2022-10-19T22:06:35;100270.63;;;8.59;77.75
60427;BME280;46274;47.168;27.604;2022-10-19T22:12:39;100266.28;;;8.40;76.76
60427;BME280;46274;47.168;27.604;2022-10-19T22:18:49;100218.78;;;7.85;77.36
60427;BME280;46274;47.168;27.604;2022-10-19T22:24:53;100262.88;;;8.20;76.80
60427;BME280;46274;47.168;27.604;2022-10-19T22:30:58;100328.50;;;8.39;78.11
60427;BME280;46274;47.168;27.604;2022-10-19T22:37:00;100260.59;;;7.90;78.07
60427;BME280;46274;47.168;27.604;2022-10-19T22:43:02;100278.97;;;8.04;77.92
60427;BME280;46274;47.168;27.604;2022-10-19T22:49:07;100310.34;;;8.41;76.35
60427;BME280;46274;47.168;27.604;2022-10-19T22:55:09;100334.63;;;8.41;76.48
60427;BME280;46274;47.168;27.604;2022-10-19T23:01:13;100286.97;;;8.14;76.82
60427;BME280;46274;47.168;27.604;2022-10-19T23:07:15;100345.72;;;8.20;78.84
60427;BME280;46274;47.168;27.604;2022-10-19T23:13:18;100296.06;;;7.95;78.32
60427;BME280;46274;47.168;27.604;2022-10-19T23:19:28;100338.78;;;8.35;77.98
60427;BME280;46274;47.168;27.604;2022-10-19T23:25:37;100258.53;;;7.83;78.01
60427;BME280;46274;47.168;27.604;2022-10-19T23:31:40;100322.13;;;8.22;77.49
60427;BME280;46274;47.168;27.604;2022-10-19T23:37:41;100341.09;;;8.30;76.91
60427;BME280;46274;47.168;27.604;2022-10-19T23:43:53;100326.50;;;8.05;76.28
60427;BME280;46274;47.168;27.604;2022-10-19T23:49:55;100239.56;;;7.39;74.81
60427;BME280;46274;47.168;27.604;2022-10-19T23:56:03;100247.84;;;7.28;73.72
